This is the latest recevied weather packets stored in our database for station/object KC1TLF-15. If no packets are shown the sender has not sent any weather packets the latest 10 day(s).
| Time | Temp. | Humidity | Pressure | Rain* | Wind** | Luminosity | Snow |
|---|---|---|---|---|---|---|---|
| 1778007071 | 28.33° C | 35% | 1013.8 hPa | 0 mm | 0.89 m/s, 2° | - | - |
| 1778006469 | 28.89° C | 34% | 1014.3 hPa | 0 mm | 2.68 m/s, 258° | 367 W/m² | - |
| 1778005869 | 29.44° C | 36% | 1014.4 hPa | 0 mm | 0.89 m/s, 356° | 289 W/m² | - |
| 1778005269 | 28.89° C | 37% | 1014.3 hPa | 0 mm | 0 m/s | 139 W/m² | - |
| 1778004670 | 28.89° C | 37% | 1014.9 hPa | 0 mm | 1.34 m/s, 245° | 147 W/m² | - |
| 1778004070 | 28.89° C | 37% | 1014.7 hPa | 0 mm | 0.89 m/s, 309° | 116 W/m² | - |
| 1778003470 | 28.89° C | 37% | 1014.8 hPa | 0 mm | 0.89 m/s, 295° | 102 W/m² | - |
| 1778002870 | 28.89° C | 37% | 1014.8 hPa | 0 mm | 1.79 m/s, 115° | 129 W/m² | - |
| 1778002270 | 28.89° C | 38% | 1014.9 hPa | 0 mm | 0 m/s | 150 W/m² | - |
| 1778001671 | 28.33° C | 38% | 1015.2 hPa | 0 mm | 0.45 m/s, 337° | 521 W/m² | - |
| 1778001070 | 28.33° C | 40% | 1015.3 hPa | 0 mm | 0.89 m/s, 133° | 159 W/m² | - |
| 1778000471 | 28.33° C | 39% | 1015.1 hPa | 0 mm | 0.89 m/s, 173° | 739 W/m² | - |
| 1777999870 | 27.78° C | 40% | 1015.8 hPa | 0 mm | 0.89 m/s, 295° | 738 W/m² | - |
| 1777999268 | 28.33° C | 38% | 1015.8 hPa | 0 mm | 0.89 m/s, 153° | 749 W/m² | - |
| 1777998669 | 28.33° C | 39% | 1015.9 hPa | 0 mm | 0.45 m/s, 290° | 740 W/m² | - |
| 1777998069 | 27.22° C | 41% | 1015.9 hPa | 0 mm | 0.45 m/s, 349° | 717 W/m² | - |
| 1777997470 | 27.78° C | 41% | 1016.3 hPa | 0 mm | 0 m/s | 718 W/m² | - |
| 1777996868 | 27.78° C | 42% | 1016.4 hPa | 0 mm | 0 m/s | 732 W/m² | - |
| 1777996270 | 27.22° C | 40% | 1016.7 hPa | 0 mm | 1.34 m/s, 214° | 238 W/m² | - |
| 1777995670 | 27.22° C | 40% | 1016.8 hPa | 0 mm | 0.89 m/s, 217° | 741 W/m² | - |
| 1777995071 | 25.56° C | 46% | 1016.8 hPa | 0 mm | 0 m/s | 712 W/m² | - |
| 1777994471 | 26.67° C | 42% | 1017.2 hPa | 0 mm | 0.45 m/s, 318° | 695 W/m² | - |
| 1777993869 | 26.11° C | 44% | 1017.4 hPa | 0 mm | 0 m/s | 733 W/m² | - |
| 1777993270 | 24.44° C | 49% | 1017 hPa | 0 mm | 0 m/s | 327 W/m² | - |
| 1777992669 | 23.89° C | 47% | 1017.3 hPa | 0 mm | 0.45 m/s, 307° | 659 W/m² | - |
* Rain latest hour (hover to see other rain measurements)
** Current wind speed in m/s (hover to see current wind gust speed)